Time;durP1;ratioP1;P1;durP2;ratioP2;P2;SDS_P1;SDS_P2;PMS_P1;PMS_P2;Temp;Humidity;BMP_temperature;BMP_pressure;BME280_temperature;BME280_humidity;BME280_pressure;Samples;Min_cycle;Max_cycle;Signal;HPM_P1;HPM_P2
2021/12/15 16:07:46;;;;;;;;;;;0.60;99.90;;;;;;5112223;27;19922;-94
2021/12/15 16:10:11;;;;;;;;;;;0.50;99.90;;;;;;5110933;28;20570;-93
2021/12/15 16:12:38;;;;;;;;;;;0.60;99.90;;;;;;5110937;28;19912;-94
2021/12/15 16:15:06;;;;;;;;;;;0.70;99.90;;;;;;5110699;28;20360;-94
2021/12/15 16:17:53;;;;;;;;;;;0.80;99.90;;;;;;5110686;28;19912;-93
2021/12/15 16:20:24;;;;;;;;;;;0.90;99.90;;;;;;5103062;28;19939;-94
2021/12/15 16:22:51;;;;;;;;;;;1.00;99.90;;;;;;5090150;28;20402;-92
2021/12/15 16:25:33;;;;;;;;;;;1.10;99.90;;;;;;5091498;28;20003;-94
2021/12/15 16:28:07;;;;;;;;;;;1.20;99.90;;;;;;5091923;28;19966;-94
2021/12/15 16:30:38;;;;;;;;;;;1.30;99.90;;;;;;5090754;28;19966;-92
2021/12/15 16:33:05;;;;;;;;;;;1.30;99.90;;;;;;5085720;28;19995;-93
2021/12/15 16:35:33;;;;;;;;;;;1.40;99.90;;;;;;5089590;28;20276;-93
2021/12/15 16:38:17;;;;;;;;;;;1.40;99.90;;;;;;5123881;28;19917;-96
2021/12/15 16:40:54;;;;;;;;;;;1.40;99.90;;;;;;5130865;27;19975;-95
2021/12/15 16:43:20;;;;;;;;;;;1.50;99.90;;;;;;5090464;28;19912;-96
2021/12/15 16:45:47;;;;;;;;;;;1.50;99.90;;;;;;5090843;28;19915;-95
2021/12/15 17:16:10;;;;;;;;;;;0.90;99.90;;;;;;5090489;27;19920;-92
2021/12/15 17:18:46;;;;;;;;;;;0.80;99.90;;;;;;5101714;28;19917;-92
2021/12/15 17:21:11;;;;;;;;;;;0.80;99.90;;;;;;5058174;28;19991;-93
2021/12/15 17:23:38;;;;;;;;;;;0.90;99.90;;;;;;5077786;28;20000;-93
2021/12/15 17:26:07;;;;;;;;;;;1.00;99.90;;;;;;5078660;28;20371;-94
2021/12/15 17:28:32;;;;;;;;;;;1.10;99.90;;;;;;5070074;28;20277;-93
2021/12/15 17:31:13;;;;;;;;;;;1.10;99.90;;;;;;5069307;28;19915;-93
2021/12/15 17:33:57;;;;;;;;;;;1.20;99.90;;;;;;5068735;28;19913;-92
2021/12/15 17:36:41;;;;;;;;;;;1.20;99.90;;;;;;5069745;28;20284;-90
2021/12/15 17:39:06;;;;;;;;;;;1.30;99.90;;;;;;5068829;28;19966;-92
2021/12/15 17:41:40;;;;;;;;;;;1.30;99.90;;;;;;5069239;28;20292;-93
2021/12/15 17:44:18;;;;;;;;;;;1.40;99.90;;;;;;5069967;28;20001;-91
2021/12/15 17:46:55;;;;;;;;;;;1.40;99.90;;;;;;5064839;28;20030;-93
2021/12/15 17:49:22;;;;;;;;;;;1.40;99.90;;;;;;5078618;28;19909;-91
2021/12/15 19:47:14;;;;;;;;;;;0.40;99.90;;;;;;5060566;28;19916;-95
2021/12/15 19:49:41;;;;;;;;;;;0.40;99.90;;;;;;5056270;28;19948;-94
2021/12/15 19:52:08;;;;;;;;;;;0.40;99.90;;;;;;5053311;28;19909;-93
2021/12/15 19:54:34;;;;;;;;;;;0.50;99.90;;;;;;5050699;28;20373;-93
2021/12/15 19:57:00;;;;;;;;;;;0.60;99.90;;;;;;5050988;28;19913;-93
2021/12/15 19:59:26;;;;;;;;;;;0.80;99.90;;;;;;5050151;28;19975;-95
2021/12/15 20:01:54;;;;;;;;;;;0.90;99.90;;;;;;5050110;28;20350;-93
2021/12/15 20:04:21;;;;;;;;;;;1.00;99.90;;;;;;5050028;28;20274;-94
2021/12/15 20:06:48;;;;;;;;;;;1.10;99.90;;;;;;5049904;28;19913;-93
2021/12/15 20:09:15;;;;;;;;;;;1.10;99.90;;;;;;5049583;28;19913;-93
2021/12/15 20:11:41;;;;;;;;;;;1.20;99.90;;;;;;5042467;28;19978;-93
2021/12/15 20:14:08;;;;;;;;;;;1.30;99.90;;;;;;5057400;28;19921;-94
2021/12/15 20:16:35;;;;;;;;;;;1.30;99.90;;;;;;5069690;28;20357;-93
2021/12/15 20:19:01;;;;;;;;;;;1.40;99.90;;;;;;5063147;28;20388;-93
2021/12/15 21:41:19;;;;;;;;;;;0.20;99.90;;;;;;5145411;27;20360;-94
2021/12/15 22:46:22;;;;;;;;;;;0.00;99.90;;;;;;5124428;27;19913;-92
